Main page
METAR-TAF:

METAR-TAF

Airports :

Cadjehoun Airport

Cotonou, Benin

latitude: 06-21N, longitude: 002-23E, elevation: 5 m

Current weather observation

The report was made 34 minutes ago, at 05:00 UTC
Wind 9 kt from the South/Southwest
Temperature 25°C
Humidity 94%
Pressure 1013 hPa
Visibility 10 km or more
Scattered clouds at a height of 1100 ft

METAR: DBBB 170500Z 21009KT 9999 SCT011 25/24 Q1013 NOSIG

Time: 06:34 (05:34 UTC)

Forecast

The report was made 6 hours and 34 minutes ago, at 23:00 UTC
Forecast valid from 17 at 00 UTC to 18 at 06 UTC
Wind 10 kt from the Southwest
Visibility 10 km or more
Scattered clouds at a height of 1200 ft
Temporary
from 17 at 05 UTC to 17 at 09 UTC
Visibility: 4000 m
Broken clouds at a height of 1000 ft
rain showers
Temporary
from 17 at 14 UTC to 17 at 20 UTC
Broken clouds at a height of 1200 ft
Few clouds at a height of 2300 ft, Cumulonimbus.
thunderstorm

TAF: DBBB 162300Z 1700/1806 22010KT 9999 SCT012 TEMPO 1705/1709 4000 SHRA BKN010 TEMPO 1714/1720 TS BKN012 FEW023CB

Weather observations and forecasts of more than 4000 airports (METAR and TAF reports).

The available stations are represented by yellow and red dots on the map.

Hover mouse over dot to see the name of the station.

Then click to see weather observations and forecasts.

To change the map : click on the green buttons with a black cross to zoom in, on the green button with a dash to zoom out, or on the green arrows for adjacent maps.


METAR-TAF: